Time;durP1;ratioP1;P1;durP2;ratioP2;P2;SDS_P1;SDS_P2;PMS_P1;PMS_P2;Temp;Humidity;BMP_temperature;BMP_pressure;BME280_temperature;BME280_humidity;BME280_pressure;Samples;Min_cycle;Max_cycle;Signal;HPM_P1;HPM_P2
2021/12/30 00:00:20;;;;;;;18.15;2.80;;;;;;;19.05;54.50;100972.03;5076000;28;20508;-59
2021/12/30 00:02:45;;;;;;;22.25;2.97;;;;;;;19.04;54.12;100964.91;5059426;28;20038;-59
2021/12/30 00:05:11;;;;;;;8.60;2.47;;;;;;;19.03;54.04;100957.78;5076228;28;20024;-59
2021/12/30 00:07:36;;;;;;;15.48;2.22;;;;;;;19.00;54.05;100963.59;5075942;28;20047;-59
2021/12/30 00:10:03;;;;;;;13.65;2.72;;;;;;;19.01;53.96;100965.25;5042607;28;20024;-59
2021/12/30 00:12:28;;;;;;;21.00;3.47;;;;;;;19.01;54.25;100972.56;5075975;28;20020;-59
2021/12/30 00:14:54;;;;;;;17.92;1.98;;;;;;;18.99;54.44;100969.19;5093994;28;20531;-59
2021/12/30 00:17:19;;;;;;;11.00;2.25;;;;;;;18.98;54.31;100971.03;5093693;28;20027;-58
2021/12/30 00:19:45;;;;;;;15.48;2.47;;;;;;;18.99;54.61;100978.16;5094069;28;20024;-59
2021/12/30 00:22:10;;;;;;;12.13;2.58;;;;;;;18.97;54.47;100969.38;5076170;28;20072;-58
2021/12/30 00:24:35;;;;;;;17.48;2.90;;;;;;;18.96;54.49;100978.53;5093637;28;20024;-59
2021/12/30 00:27:01;;;;;;;13.50;3.33;;;;;;;18.95;54.60;100976.84;5075562;28;20028;-59
2021/12/30 00:29:27;;;;;;;12.73;3.60;;;;;;;18.85;54.84;100965.38;5092874;28;20055;-59
2021/12/30 00:31:52;;;;;;;14.70;2.53;;;;;;;18.94;54.62;100974.31;5092987;28;20028;-58
2021/12/30 00:34:17;;;;;;;13.80;3.40;;;;;;;18.95;54.09;100976.84;5076779;28;20131;-59
2021/12/30 00:36:43;;;;;;;7.35;2.45;;;;;;;18.97;54.32;100985.66;5094736;28;20038;-58
2021/12/30 00:39:08;;;;;;;8.93;2.22;;;;;;;18.99;54.67;100980.88;5060008;28;20065;-59
2021/12/30 00:41:34;;;;;;;11.55;2.97;;;;;;;19.01;54.50;100986.16;5094712;28;20028;-59
2021/12/30 00:44:00;;;;;;;13.10;2.38;;;;;;;19.03;54.40;100979.53;5094529;28;20444;-59
2021/12/30 00:46:26;;;;;;;16.40;2.08;;;;;;;19.04;54.37;100974.91;5094891;28;20058;-59
2021/12/30 00:48:52;;;;;;;12.10;3.08;;;;;;;19.09;54.23;100984.22;5095041;28;20024;-59
2021/12/30 00:51:17;;;;;;;11.52;1.80;;;;;;;19.09;54.15;100978.81;5094590;28;20028;-58
2021/12/30 00:53:42;;;;;;;13.10;2.08;;;;;;;19.13;54.11;100977.41;5076544;28;20514;-59
2021/12/30 00:56:08;;;;;;;17.45;1.95;;;;;;;19.14;54.33;100986.41;5076733;28;20028;-59
2021/12/30 00:58:33;;;;;;;16.13;2.88;;;;;;;19.16;54.38;100990.63;5094817;28;20028;-59
2021/12/30 01:00:59;;;;;;;13.27;2.35;;;;;;;19.18;54.15;100993.13;5094942;28;20058;-59
2021/12/30 01:03:25;;;;;;;26.17;2.45;;;;;;;19.17;54.12;100992.31;5094778;28;20027;-59
2021/12/30 01:05:50;;;;;;;15.40;2.25;;;;;;;19.19;54.23;100992.97;5076457;28;20122;-59
2021/12/30 01:08:16;;;;;;;9.75;2.17;;;;;;;19.19;54.09;100995.69;5094835;28;20022;-59
2021/12/30 01:10:43;;;;;;;9.43;2.22;;;;;;;19.19;54.77;100992.97;5075776;28;20024;-58
2021/12/30 01:13:15;;;;;;;8.02;1.75;;;;;;;19.23;54.11;101007.03;5094373;28;20024;-59
2021/12/30 01:15:48;;;;;;;12.52;2.05;;;;;;;19.25;54.09;101004.97;5076353;28;20035;-59
2021/12/30 01:19:23;;;;;;;11.73;2.17;;;;;;;19.26;54.57;101005.84;5094494;28;20038;-59
2021/12/30 01:21:11;;;;;;;11.25;1.83;;;;;;;19.25;54.43;101009.56;5076421;28;20111;-59
2021/12/30 01:23:37;;;;;;;12.13;2.00;;;;;;;19.26;54.10;101017.56;5094099;28;20099;-58
2021/12/30 01:26:04;;;;;;;17.88;2.75;;;;;;;19.26;54.35;101009.41;5094334;28;20485;-59
2021/12/30 01:28:29;;;;;;;10.30;3.35;;;;;;;19.29;54.38;101014.44;5094299;28;20394;-58
2021/12/30 01:30:55;;;;;;;20.00;3.55;;;;;;;19.29;54.30;101010.91;5094579;28;20027;-58
2021/12/30 01:33:21;;;;;;;9.23;2.22;;;;;;;19.32;54.71;101015.97;5076445;28;20031;-60
2021/12/30 01:35:46;;;;;;;9.32;2.15;;;;;;;19.33;54.50;101023.94;5094625;28;20024;-59
2021/12/30 01:38:16;;;;;;;16.50;2.08;;;;;;;19.34;54.27;101020.19;5094038;28;20031;-59
2021/12/30 01:40:43;;;;;;;8.80;2.58;;;;;;;19.38;54.63;101026.09;5094338;28;20030;-59
2021/12/30 01:43:11;;;;;;;8.85;2.15;;;;;;;19.38;54.58;101039.69;5094314;28;20484;-59
2021/12/30 01:45:37;;;;;;;9.88;1.70;;;;;;;19.38;55.28;101032.41;5094242;28;20081;-59
2021/12/30 01:48:03;;;;;;;14.43;2.20;;;;;;;19.40;54.63;101040.41;5094493;28;20023;-59
2021/12/30 01:50:28;;;;;;;4.70;2.25;;;;;;;19.44;54.72;101041.72;5094648;28;20427;-59
2021/12/30 01:52:54;;;;;;;7.88;2.25;;;;;;;19.43;54.81;101040.03;5094201;28;20024;-59
2021/12/30 01:55:22;;;;;;;13.68;2.95;;;;;;;19.45;55.07;101032.53;5094299;28;20031;-59
2021/12/30 01:57:48;;;;;;;17.77;3.05;;;;;;;19.46;55.04;101023.34;5076556;28;20043;-59
2021/12/30 02:00:18;;;;;;;12.52;1.80;;;;;;;19.49;54.82;101028.41;5059375;28;20020;-59
2021/12/30 02:02:44;;;;;;;14.93;2.17;;;;;;;19.41;55.23;101009.47;5094226;28;20065;-58
2021/12/30 02:05:09;;;;;;;12.85;2.33;;;;;;;19.51;54.91;101020.94;5094097;28;20024;-59
2021/12/30 02:07:35;;;;;;;15.15;3.03;;;;;;;19.54;55.30;101012.44;5094590;28;20032;-59
2021/12/30 02:10:02;;;;;;;13.10;2.10;;;;;;;19.56;55.32;101018.53;5094016;28;20083;-59
2021/12/30 02:12:30;;;;;;;10.93;2.50;;;;;;;19.55;54.93;101005.97;5093665;28;20488;-59
2021/12/30 02:14:56;;;;;;;18.92;2.90;;;;;;;19.54;54.86;100998.84;5094361;28;20008;-59
2021/12/30 02:17:21;;;;;;;5.50;1.80;;;;;;;19.53;54.90;100991.72;5076130;28;20024;-58
2021/12/30 02:19:46;;;;;;;9.77;2.08;;;;;;;19.54;55.51;100996.13;5075871;28;20027;-59
2021/12/30 02:22:12;;;;;;;8.40;1.77;;;;;;;19.54;55.23;101004.28;5096627;28;20472;-58
2021/12/30 02:24:47;;;;;;;11.85;1.95;;;;;;;19.52;55.33;101012.59;5097661;28;20490;-59
2021/12/30 02:27:13;;;;;;;10.15;2.00;;;;;;;19.51;55.24;101016.38;5097526;28;20028;-59
2021/12/30 02:29:38;;;;;;;11.13;2.65;;;;;;;19.50;55.94;101019.25;5097343;28;20063;-59
2021/12/30 02:32:04;;;;;;;11.20;2.47;;;;;;;19.52;55.08;101022.63;5097267;28;20028;-59
2021/12/30 02:34:30;;;;;;;10.68;1.90;;;;;;;19.52;55.49;101020.75;5097463;28;20081;-59
2021/12/30 02:36:55;;;;;;;13.57;2.33;;;;;;;19.49;55.63;101012.13;5097417;28;20082;-59
2021/12/30 02:39:22;;;;;;;14.10;2.55;;;;;;;19.51;55.13;101021.81;5097189;28;20028;-59
2021/12/30 02:41:48;;;;;;;7.68;1.67;;;;;;;19.50;55.86;101019.25;5097344;28;20036;-58
2021/12/30 02:44:13;;;;;;;5.38;2.30;;;;;;;19.48;55.74;101018.59;5097374;28;20476;-59
2021/12/30 02:46:40;;;;;;;5.20;1.73;;;;;;;19.46;55.58;101021.47;5097118;28;20052;-59
2021/12/30 02:49:05;;;;;;;8.45;2.40;;;;;;;19.46;55.79;101023.34;5062156;28;20020;-59
2021/12/30 02:51:31;;;;;;;7.85;1.77;;;;;;;19.44;56.22;101011.81;5096992;28;20115;-58
2021/12/30 02:53:57;;;;;;;4.00;2.20;;;;;;;19.41;56.33;101020.34;5097217;28;20460;-58
2021/12/30 02:56:23;;;;;;;5.25;2.38;;;;;;;19.39;56.30;101022.41;5096811;28;20031;-58
2021/12/30 02:58:49;;;;;;;5.88;2.33;;;;;;;19.37;56.36;101019.00;5061903;28;20028;-58
2021/12/30 03:01:29;;;;;;;4.70;2.05;;;;;;;19.37;56.36;101021.72;5078749;28;20088;-58
2021/12/30 03:03:56;;;;;;;4.18;2.22;;;;;;;19.37;56.27;101019.84;5096438;28;20047;-59
2021/12/30 03:06:22;;;;;;;5.45;1.50;;;;;;;19.35;56.18;101019.16;5096610;28;20020;-59
2021/12/30 03:08:49;;;;;;;3.15;1.85;;;;;;;19.35;55.91;101021.03;5096569;28;20437;-59
2021/12/30 03:11:15;;;;;;;7.20;2.08;;;;;;;19.36;56.56;101033.59;5096495;28;20054;-59
2021/12/30 03:13:43;;;;;;;2.95;1.98;;;;;;;19.37;56.67;101021.72;5078866;28;20058;-58
2021/12/30 03:16:12;;;;;;;3.40;2.05;;;;;;;19.37;56.27;101019.84;5062201;28;20028;-58
2021/12/30 03:18:38;;;;;;;4.63;1.77;;;;;;;19.38;56.67;101020.66;5096589;28;20028;-59
2021/12/30 03:21:05;;;;;;;5.93;2.00;;;;;;;19.39;56.67;101019.69;5096545;28;20024;-58
2021/12/30 03:23:31;;;;;;;4.65;2.17;;;;;;;19.36;56.40;101020.00;5096459;28;20069;-59
2021/12/30 03:25:56;;;;;;;5.60;2.47;;;;;;;19.37;56.76;101019.84;5096557;28;20388;-59
2021/12/30 03:28:22;;;;;;;4.13;2.53;;;;;;;19.34;56.60;101013.91;5096349;28;20055;-59
2021/12/30 03:30:48;;;;;;;7.40;2.38;;;;;;;19.32;56.58;101026.84;5096516;28;20521;-60
2021/12/30 03:33:14;;;;;;;6.40;2.50;;;;;;;19.31;56.40;101030.56;5095663;28;20020;-59
2021/12/30 03:35:39;;;;;;;6.68;2.22;;;;;;;19.28;56.96;101025.50;5096696;28;20020;-59
2021/12/30 03:38:05;;;;;;;5.25;2.47;;;;;;;19.28;56.76;101031.78;5096498;28;20027;-58
2021/12/30 03:40:31;;;;;;;4.03;1.95;;;;;;;19.28;56.92;101031.78;5095888;28;20063;-58
2021/12/30 03:42:57;;;;;;;3.60;1.80;;;;;;;19.29;56.71;101038.06;5096148;28;20043;-58
2021/12/30 03:45:23;;;;;;;3.75;2.58;;;;;;;19.30;57.18;101040.59;5095878;28;20098;-58
2021/12/30 03:47:50;;;;;;;2.47;1.80;;;;;;;19.29;56.95;101038.88;5095736;28;20054;-58
2021/12/30 03:50:20;;;;;;;2.47;1.65;;;;;;;19.27;56.86;101042.81;5095575;28;20024;-58
2021/12/30 03:52:52;;;;;;;4.00;2.67;;;;;;;19.28;57.31;101047.22;5095901;28;20047;-58
2021/12/30 03:55:18;;;;;;;2.88;1.83;;;;;;;19.28;57.17;101044.53;5095804;28;20512;-59
2021/12/30 03:57:45;;;;;;;4.78;2.22;;;;;;;19.29;57.45;101048.94;5095772;28;20031;-59
2021/12/30 04:00:11;;;;;;;2.42;1.77;;;;;;;19.32;57.65;101054.84;5096131;28;20089;-59
2021/12/30 04:02:37;;;;;;;2.15;1.65;;;;;;;19.33;57.59;101055.69;5095573;28;20105;-59
2021/12/30 04:05:03;;;;;;;2.65;1.70;;;;;;;19.36;57.55;101069.75;5095924;28;20071;-58
2021/12/30 04:07:28;;;;;;;2.80;1.25;;;;;;;19.38;57.48;101064.13;5096026;28;20023;-58
2021/12/30 04:09:54;;;;;;;2.13;1.63;;;;;;;19.40;57.93;101054.00;5095533;28;20024;-59
2021/12/30 04:12:19;;;;;;;3.40;1.38;;;;;;;19.42;58.28;101055.50;5095765;28;20020;-59
2021/12/30 04:14:44;;;;;;;2.53;1.48;;;;;;;19.46;57.79;101064.09;5095621;28;20054;-58
2021/12/30 04:17:10;;;;;;;1.33;1.13;;;;;;;19.48;57.55;101048.50;5077475;28;20114;-59
2021/12/30 04:19:35;;;;;;;2.08;1.10;;;;;;;19.50;57.70;101051.84;5095586;28;20028;-59
2021/12/30 04:22:01;;;;;;;0.98;0.77;;;;;;;19.54;57.69;101053.19;5095314;28;20405;-58
2021/12/30 04:24:26;;;;;;;2.55;0.90;;;;;;;19.55;57.84;101049.44;5095307;28;20023;-59
2021/12/30 04:26:52;;;;;;;2.30;0.80;;;;;;;19.60;57.73;101052.44;5095114;28;20034;-58
2021/12/30 04:29:18;;;;;;;1.42;0.77;;;;;;;19.67;57.61;101058.88;5095110;28;20443;-59
2021/12/30 04:31:44;;;;;;;1.35;0.85;;;;;;;19.68;57.06;101055.13;5076844;28;20028;-58
2021/12/30 04:34:09;;;;;;;1.73;0.63;;;;;;;19.70;57.27;101061.22;5095114;28;20020;-59
2021/12/30 04:36:35;;;;;;;1.27;0.70;;;;;;;19.69;57.76;101065.81;5094706;28;20472;-58
2021/12/30 04:39:00;;;;;;;2.65;0.85;;;;;;;19.74;58.14;101067.97;5095282;28;20031;-59
2021/12/30 04:41:26;;;;;;;1.77;0.80;;;;;;;19.73;57.86;101072.59;5095023;28;20027;-58
2021/12/30 04:43:51;;;;;;;0.70;0.47;;;;;;;19.74;57.87;101076.13;5076519;28;20031;-58
2021/12/30 04:46:16;;;;;;;0.38;0.38;;;;;;;19.79;57.55;101089.19;5094965;28;20107;-58
2021/12/30 04:48:42;;;;;;;0.47;0.38;;;;;;;19.80;57.84;101091.72;5094842;28;20468;-59
2021/12/30 04:51:07;;;;;;;1.20;0.30;;;;;;;19.83;57.99;101096.78;5094577;28;20024;-58
2021/12/30 04:53:32;;;;;;;0.32;0.32;;;;;;;19.85;57.77;101094.72;5094868;28;20023;-59
2021/12/30 04:55:58;;;;;;;0.30;0.30;;;;;;;19.88;57.88;101096.25;5094734;28;20027;-58
2021/12/30 04:58:23;;;;;;;0.38;0.38;;;;;;;19.88;57.56;101099.78;5094630;28;20461;-58
2021/12/30 05:00:49;;;;;;;0.50;0.50;;;;;;;19.90;57.33;101100.47;5094647;28;20035;-59
2021/12/30 05:03:15;;;;;;;0.95;0.68;;;;;;;19.92;57.94;101106.56;5094782;28;20020;-58
2021/12/30 05:05:49;;;;;;;0.60;0.50;;;;;;;19.97;57.85;101116.88;5076791;28;20161;-58
2021/12/30 05:08:18;;;;;;;0.30;0.30;;;;;;;19.96;57.30;101110.59;5094088;28;20027;-59
2021/12/30 05:10:43;;;;;;;0.35;0.35;;;;;;;19.95;57.54;101111.66;5076226;28;20020;-59
2021/12/30 05:13:09;;;;;;;0.28;0.28;;;;;;;19.95;57.95;101108.94;5094642;28;20416;-59
2021/12/30 05:15:36;;;;;;;0.40;0.30;;;;;;;19.97;57.95;101109.56;5076087;28;20027;-58
2021/12/30 05:18:03;;;;;;;0.60;0.45;;;;;;;19.98;57.87;101110.44;5094562;28;20039;-58
2021/12/30 05:20:28;;;;;;;0.38;0.32;;;;;;;19.94;57.55;101107.22;5094210;28;20593;-58
2021/12/30 05:22:53;;;;;;;0.40;0.40;;;;;;;19.96;58.53;101113.31;5093609;28;20034;-59
2021/12/30 05:25:19;;;;;;;0.63;0.40;;;;;;;19.96;58.19;101117.94;5094217;28;20103;-59
2021/12/30 05:27:46;;;;;;;1.42;0.68;;;;;;;19.96;58.26;101123.38;5094393;28;20024;-59
2021/12/30 05:30:12;;;;;;;0.90;0.52;;;;;;;19.99;57.45;101129.28;5093990;28;20063;-59
2021/12/30 05:32:38;;;;;;;1.35;0.60;;;;;;;20.01;58.23;101126.38;5094557;28;20028;-59
2021/12/30 05:35:06;;;;;;;0.65;0.60;;;;;;;20.00;57.63;101130.97;5094710;28;20021;-58
2021/12/30 05:37:31;;;;;;;2.17;0.50;;;;;;;20.01;58.34;101132.69;5093816;28;20108;-59
2021/12/30 05:39:56;;;;;;;1.02;0.65;;;;;;;20.02;58.27;101139.78;5076086;28;20062;-58
2021/12/30 05:42:23;;;;;;;2.30;0.50;;;;;;;20.06;58.15;101143.00;5075842;28;20028;-58
2021/12/30 05:44:53;;;;;;;1.00;0.60;;;;;;;20.04;57.88;101126.03;5093981;28;20024;-58
2021/12/30 05:47:19;;;;;;;0.60;0.55;;;;;;;20.10;58.18;101125.28;5076021;28;20051;-59
2021/12/30 05:49:44;;;;;;;0.40;0.40;;;;;;;20.12;58.11;101129.53;5094162;28;20054;-58
2021/12/30 05:52:10;;;;;;;1.20;0.63;;;;;;;20.15;57.92;101115.56;5094122;28;20107;-58
2021/12/30 05:54:36;;;;;;;1.33;0.80;;;;;;;20.15;57.71;101131.88;5094268;28;20016;-58
2021/12/30 05:57:01;;;;;;;1.00;0.63;;;;;;;20.14;57.84;101127.44;5096767;28;20031;-58
2021/12/30 05:59:27;;;;;;;0.95;0.73;;;;;;;20.17;58.09;101143.41;5097840;28;20020;-59
2021/12/30 06:01:52;;;;;;;0.50;0.50;;;;;;;20.18;57.43;101138.81;5097651;28;20079;-58
2021/12/30 06:04:17;;;;;;;0.60;0.50;;;;;;;20.17;57.74;101140.69;5097488;28;20028;-59
2021/12/30 06:06:43;;;;;;;0.68;0.52;;;;;;;20.16;57.79;101138.13;5097730;28;20105;-59
2021/12/30 06:09:08;;;;;;;0.50;0.50;;;;;;;20.15;57.70;101145.47;5096939;28;20058;-58
2021/12/30 06:11:33;;;;;;;0.30;0.30;;;;;;;20.16;57.52;101155.31;5097636;28;20024;-58
2021/12/30 06:13:59;;;;;;;0.93;0.40;;;;;;;20.19;58.10;101151.38;5079600;28;20031;-58
2021/12/30 06:16:25;;;;;;;0.52;0.45;;;;;;;20.23;57.97;101153.56;5097459;28;20149;-59
2021/12/30 06:18:50;;;;;;;0.40;0.40;;;;;;;20.23;58.04;101164.44;5079533;28;20027;-58
2021/12/30 06:21:15;;;;;;;1.00;0.50;;;;;;;20.25;57.96;101165.13;5097356;28;20384;-59
2021/12/30 06:23:41;;;;;;;2.13;0.85;;;;;;;20.26;58.03;101157.81;5079338;28;20028;-58
2021/12/30 06:26:06;;;;;;;0.47;0.40;;;;;;;20.27;57.84;101163.06;5097249;28;20024;-58
2021/12/30 06:28:31;;;;;;;0.47;0.35;;;;;;;20.29;58.16;101162.91;5097252;28;20127;-58
2021/12/30 06:30:57;;;;;;;0.80;0.35;;;;;;;20.26;57.61;101158.66;5078945;28;20051;-59
2021/12/30 06:33:22;;;;;;;0.20;0.20;;;;;;;20.31;57.46;101164.41;5096766;28;20077;-58
2021/12/30 06:35:47;;;;;;;0.47;0.38;;;;;;;20.31;58.07;101169.84;5097184;28;20032;-59
2021/12/30 06:38:13;;;;;;;0.80;0.38;;;;;;;20.33;58.24;101167.78;5097345;28;20016;-58
2021/12/30 06:40:38;;;;;;;0.73;0.73;;;;;;;20.35;57.90;101162.16;5097326;28;20020;-58
2021/12/30 06:43:04;;;;;;;0.40;0.30;;;;;;;20.36;58.22;101149.38;5096832;28;20085;-59
2021/12/30 06:45:29;;;;;;;0.20;0.20;;;;;;;20.36;58.13;101158.38;5097125;28;20089;-58
2021/12/30 06:47:54;;;;;;;1.30;0.30;;;;;;;20.38;57.17;101158.22;5096880;28;20024;-59
2021/12/30 06:50:23;;;;;;;0.40;0.35;;;;;;;20.38;57.36;101160.94;5096660;28;20032;-58
2021/12/30 06:52:48;;;;;;;1.48;0.30;;;;;;;20.41;57.67;101155.13;5096426;28;20020;-58
2021/12/30 06:55:14;;;;;;;0.82;0.30;;;;;;;20.41;57.16;101155.13;5096570;28;20103;-59
2021/12/30 06:57:41;;;;;;;0.47;0.32;;;;;;;20.41;58.07;101149.69;5097291;28;20444;-59
2021/12/30 07:00:07;;;;;;;0.63;0.30;;;;;;;20.44;57.99;101152.88;5078823;28;20034;-59
2021/12/30 07:02:36;;;;;;;0.22;0.20;;;;;;;20.45;57.13;101159.16;5079020;28;20058;-59
2021/12/30 07:05:03;;;;;;;0.93;0.50;;;;;;;20.46;57.45;101166.31;5096405;28;20055;-58
2021/12/30 07:07:28;;;;;;;0.70;0.28;;;;;;;20.48;57.53;101172.41;5078417;28;20028;-59
2021/12/30 07:09:53;;;;;;;0.55;0.20;;;;;;;20.40;57.17;101156.16;5096706;28;20042;-58
2021/12/30 07:12:19;;;;;;;1.05;0.20;;;;;;;20.50;57.18;101175.78;5096450;28;20028;-59
2021/12/30 07:14:44;;;;;;;0.22;0.20;;;;;;;20.50;57.52;101176.63;5096841;28;20012;-60
2021/12/30 07:17:10;;;;;;;0.47;0.20;;;;;;;20.49;57.81;101168.66;5078289;28;20024;-59
2021/12/30 07:19:35;;;;;;;0.17;0.17;;;;;;;20.51;57.07;101182.91;5078700;28;20099;-59
2021/12/30 07:22:01;;;;;;;1.08;0.30;;;;;;;20.53;57.60;101191.75;5096319;28;20074;-59
2021/12/30 07:24:26;;;;;;;0.20;0.17;;;;;;;20.53;57.54;101191.75;5096551;28;20032;-59
2021/12/30 07:26:52;;;;;;;0.17;0.10;;;;;;;20.52;57.49;101204.50;5096500;28;20020;-58
2021/12/30 07:29:18;;;;;;;0.13;0.13;;;;;;;20.51;57.39;101196.53;5096146;28;20084;-59
2021/12/30 07:31:44;;;;;;;0.13;0.10;;;;;;;20.51;57.49;101199.25;5096125;28;20491;-58
2021/12/30 07:34:12;;;;;;;0.40;0.40;;;;;;;20.56;57.56;101207.72;5096315;28;20385;-59
2021/12/30 07:36:38;;;;;;;0.20;0.20;;;;;;;20.57;56.83;101212.13;5095690;28;20081;-58
2021/12/30 07:39:04;;;;;;;2.28;0.22;;;;;;;20.58;56.84;101221.97;5096304;28;20024;-59
2021/12/30 07:41:30;;;;;;;0.10;0.10;;;;;;;20.57;57.02;101220.28;5096004;28;20024;-59
2021/12/30 07:43:55;;;;;;;0.20;0.17;;;;;;;20.59;57.83;101229.97;5095794;28;20525;-59
2021/12/30 07:46:20;;;;;;;1.38;0.30;;;;;;;20.57;57.57;101225.75;5096318;28;20027;-58
2021/12/30 07:48:46;;;;;;;0.20;0.20;;;;;;;20.62;57.68;101239.63;5095662;28;20103;-59
2021/12/30 07:51:11;;;;;;;0.35;0.20;;;;;;;20.63;57.48;101241.34;5095749;28;20028;-59
2021/12/30 07:53:37;;;;;;;0.20;0.20;;;;;;;20.62;57.21;101245.09;5096061;28;20020;-59
2021/12/30 07:56:03;;;;;;;0.63;0.63;;;;;;;20.63;56.91;101246.78;5095598;28;20494;-59
2021/12/30 07:58:29;;;;;;;0.25;0.25;;;;;;;20.63;57.21;101250.34;5095674;28;20055;-59
2021/12/30 08:00:54;;;;;;;0.20;0.20;;;;;;;20.65;56.62;101255.59;5095783;28;20469;-59
2021/12/30 08:03:20;;;;;;;0.20;0.20;;;;;;;20.65;57.38;101261.06;5095374;28;20074;-59
2021/12/30 08:05:45;;;;;;;0.55;0.45;;;;;;;20.62;57.10;101256.81;5095144;28;20024;-58
2021/12/30 08:08:11;;;;;;;0.30;0.30;;;;;;;20.66;57.30;101262.75;5077791;28;20028;-59
2021/12/30 08:10:36;;;;;;;0.38;0.20;;;;;;;20.67;57.27;101269.88;5095506;28;20020;-59
2021/12/30 08:13:02;;;;;;;0.20;0.20;;;;;;;20.69;57.24;101274.09;5095380;28;20004;-59
2021/12/30 08:15:28;;;;;;;0.25;0.15;;;;;;;20.69;57.43;101273.25;5095616;28;20024;-59
2021/12/30 08:17:54;;;;;;;0.38;0.35;;;;;;;20.71;56.85;101273.94;5077030;28;20034;-59
2021/12/30 08:20:22;;;;;;;0.32;0.32;;;;;;;20.71;56.97;101276.66;5076510;28;20111;-58
2021/12/30 08:22:48;;;;;;;0.25;0.20;;;;;;;20.73;56.89;101269.16;5095241;28;20024;-58
2021/12/30 08:25:14;;;;;;;0.90;0.40;;;;;;;20.74;56.91;101277.13;5095115;28;20031;-59
2021/12/30 08:27:41;;;;;;;0.63;0.40;;;;;;;20.74;56.77;101268.94;5095559;28;20024;-58
2021/12/30 08:30:10;;;;;;;0.35;0.35;;;;;;;20.76;56.59;101268.78;5095036;28;20126;-59
2021/12/30 08:32:35;;;;;;;0.82;0.32;;;;;;;20.77;57.05;101270.47;5094953;28;20077;-58
2021/12/30 08:35:01;;;;;;;0.32;0.32;;;;;;;20.77;56.48;101281.38;5095113;28;20103;-58
2021/12/30 08:37:27;;;;;;;0.28;0.28;;;;;;;20.77;57.33;101281.38;5077021;28;20027;-59
2021/12/30 08:39:52;;;;;;;0.50;0.50;;;;;;;20.80;57.16;101292.72;5060550;28;20464;-59
2021/12/30 08:42:20;;;;;;;0.47;0.47;;;;;;;20.81;56.90;101282.69;5076623;28;20089;-59
2021/12/30 08:44:46;;;;;;;1.90;0.57;;;;;;;20.80;57.39;101289.16;5094835;28;20035;-58
2021/12/30 08:47:12;;;;;;;0.40;0.40;;;;;;;20.83;57.39;101286.06;5094831;28;20066;-58
2021/12/30 08:49:41;;;;;;;2.05;0.38;;;;;;;20.85;57.43;101300.34;5094814;28;20043;-58
2021/12/30 08:52:06;;;;;;;0.43;0.43;;;;;;;20.88;57.03;101306.25;5094834;28;20024;-58
2021/12/30 08:54:34;;;;;;;0.52;0.40;;;;;;;20.87;56.99;101287.41;5094908;28;20374;-59
2021/12/30 08:57:00;;;;;;;0.35;0.35;;;;;;;20.87;56.95;101303.75;5094457;28;20026;-58
2021/12/30 08:59:25;;;;;;;0.40;0.30;;;;;;;20.88;57.12;101300.00;5059848;28;20028;-59
2021/12/30 09:01:51;;;;;;;0.75;0.40;;;;;;;20.90;57.04;101298.78;5094459;28;20032;-58
2021/12/30 09:04:16;;;;;;;1.05;0.25;;;;;;;20.93;56.97;101303.00;5094513;28;20123;-59
2021/12/30 09:06:41;;;;;;;1.15;0.50;;;;;;;20.89;57.57;101296.22;5094171;28;20067;-59
2021/12/30 09:09:07;;;;;;;0.82;0.50;;;;;;;20.89;56.52;101305.25;5093978;28;20024;-59
2021/12/30 09:11:32;;;;;;;2.55;0.50;;;;;;;20.91;57.62;101299.59;5094399;28;20027;-58
2021/12/30 09:13:57;;;;;;;0.65;0.50;;;;;;;20.89;57.11;101297.06;5094292;28;20118;-59
2021/12/30 09:16:23;;;;;;;1.88;0.60;;;;;;;20.89;57.32;101296.22;5094244;28;20051;-59
2021/12/30 09:18:48;;;;;;;1.92;0.57;;;;;;;20.91;56.35;101310.50;5076126;28;20477;-59
2021/12/30 09:21:13;;;;;;;0.98;0.68;;;;;;;20.90;57.15;101300.66;5094367;28;20032;-59
2021/12/30 09:23:39;;;;;;;0.98;0.73;;;;;;;20.88;57.30;101305.44;5076111;28;20059;-59
2021/12/30 09:26:04;;;;;;;1.63;0.70;;;;;;;20.87;56.55;101314.63;5093988;28;20024;-58
2021/12/30 09:28:30;;;;;;;0.65;0.40;;;;;;;20.88;57.51;101321.78;5076024;28;20093;-58
2021/12/30 09:30:55;;;;;;;0.45;0.43;;;;;;;20.89;57.13;101318.00;5077079;28;20477;-59
2021/12/30 09:33:21;;;;;;;0.50;0.50;;;;;;;20.91;57.10;101332.28;5098540;28;20473;-59
2021/12/30 09:35:49;;;;;;;0.73;0.45;;;;;;;20.94;56.61;101331.09;5098333;28;20507;-59
2021/12/30 09:38:15;;;;;;;0.57;0.50;;;;;;;20.95;56.49;101327.31;5097976;28;20481;-59
2021/12/30 09:40:40;;;;;;;1.45;1.05;;;;;;;20.98;57.48;101327.81;5098426;28;20032;-59
2021/12/30 09:43:09;;;;;;;1.17;0.55;;;;;;;21.02;57.31;101334.56;5079935;28;20028;-59
2021/12/30 09:45:37;;;;;;;1.98;0.40;;;;;;;21.05;56.64;101345.09;5098182;28;20020;-59
2021/12/30 09:48:06;;;;;;;0.75;0.70;;;;;;;21.09;57.38;101346.47;5098040;28;20054;-58
2021/12/30 09:50:36;;;;;;;2.20;0.57;;;;;;;21.19;55.93;101349.75;5097938;28;20028;-59
2021/12/30 09:53:02;;;;;;;1.55;0.60;;;;;;;21.37;56.71;101354.88;5097756;28;20036;-62
2021/12/30 09:55:27;;;;;;;0.68;0.68;;;;;;;21.51;56.63;101350.44;5079200;28;20063;-59
2021/12/30 09:57:53;;;;;;;2.15;0.70;;;;;;;21.60;56.59;101354.78;5079295;28;20034;-59
2021/12/30 10:00:19;;;;;;;1.02;0.77;;;;;;;21.66;56.14;101343.13;5097218;28;20032;-60
2021/12/30 10:02:45;;;;;;;2.22;0.65;;;;;;;21.68;56.38;101344.63;5096958;28;20020;-59
2021/12/30 10:05:19;;;;;;;2.92;0.82;;;;;;;21.70;56.12;101341.69;5097234;28;20028;-59
2021/12/30 10:07:46;;;;;;;3.08;0.50;;;;;;;21.72;56.61;101343.19;5097027;28;20472;-60
2021/12/30 10:10:34;;;;;;;2.88;0.80;;;;;;;21.77;55.67;101337.19;5096901;28;20028;-59
2021/12/30 10:13:01;;;;;;;0.50;0.50;;;;;;;21.78;55.49;101333.41;5097160;28;20028;-60
2021/12/30 10:15:30;;;;;;;1.88;0.55;;;;;;;21.76;55.64;101340.94;5096883;28;20020;-59
2021/12/30 10:17:58;;;;;;;3.28;1.30;;;;;;;21.74;56.37;101337.56;5096669;28;20032;-59
2021/12/30 10:20:29;;;;;;;1.35;1.00;;;;;;;21.74;56.61;101340.31;5096665;28;20027;-59
2021/12/30 10:22:57;;;;;;;1.45;0.98;;;;;;;21.70;56.42;101341.69;5096618;28;20103;-59
2021/12/30 10:25:33;;;;;;;2.13;0.95;;;;;;;21.69;56.23;101337.31;5078591;28;20028;-60
2021/12/30 10:28:33;;;;;;;0.80;0.80;;;;;;;21.65;55.75;101347.75;5078637;28;20039;-58
2021/12/30 10:31:12;;;;;;;3.72;0.95;;;;;;;21.61;56.28;101343.69;5076302;28;20512;-59
2021/12/30 10:33:50;;;;;;;3.50;1.20;;;;;;;21.61;56.39;101356.50;5076475;28;20024;-60
2021/12/30 10:36:18;;;;;;;2.13;1.02;;;;;;;21.61;55.78;101353.75;5076265;28;20044;-59
2021/12/30 10:38:43;;;;;;;0.98;0.82;;;;;;;21.60;55.48;101339.28;5058315;28;20024;-59
2021/12/30 10:41:09;;;;;;;4.82;1.10;;;;;;;21.61;56.15;101353.75;5076108;28;20524;-59
2021/12/30 10:43:45;;;;;;;1.50;0.85;;;;;;;21.60;55.32;101349.34;5075492;28;20362;-59
2021/12/30 10:46:27;;;;;;;1.92;1.20;;;;;;;21.63;55.66;101362.59;5076036;28;20029;-59
2021/12/30 10:49:26;;;;;;;2.22;0.95;;;;;;;21.64;55.52;101362.38;5075982;28;20040;-59
2021/12/30 10:51:52;;;;;;;3.00;1.30;;;;;;;21.70;55.70;101355.34;5057940;28;20366;-59
2021/12/30 10:54:27;;;;;;;2.80;1.17;;;;;;;21.72;55.85;101348.66;5075824;28;20363;-59
2021/12/30 10:57:07;;;;;;;1.58;0.88;;;;;;;21.76;55.01;101346.41;5075789;28;20020;-59
2021/12/30 10:59:42;;;;;;;3.28;1.10;;;;;;;21.78;55.29;101355.25;5075677;28;20028;-60
2021/12/30 11:02:22;;;;;;;2.13;1.25;;;;;;;21.79;55.54;101349.59;5057879;28;20032;-59
2021/12/30 11:04:53;;;;;;;3.90;1.42;;;;;;;21.81;55.19;101352.13;5075689;28;20022;-59
2021/12/30 11:07:43;;;;;;;4.97;1.27;;;;;;;21.94;55.26;101355.09;5075810;28;20470;-59
2021/12/30 11:10:09;;;;;;;3.20;1.98;;;;;;;21.96;55.17;101351.13;5059945;28;20140;-60
2021/12/30 11:12:41;;;;;;;8.38;1.40;;;;;;;21.96;55.66;101362.03;5074035;28;20048;-59
2021/12/30 11:15:24;;;;;;;3.55;1.88;;;;;;;22.00;55.03;101366.06;5075435;28;20033;-59
2021/12/30 11:17:50;;;;;;;2.00;1.48;;;;;;;22.03;54.44;101362.09;5075277;28;20024;-60
2021/12/30 11:20:20;;;;;;;4.38;1.25;;;;;;;22.02;55.30;101374.09;5075152;28;20500;-60
2021/12/30 11:22:47;;;;;;;2.35;1.27;;;;;;;21.99;54.74;101366.28;5075168;28;20078;-59